NOZ11 ENAL-ENAL

Flight info

Callsign NOZ11
Flight time 0h 27m
Altitude 1200
Route ENAL
Aircraft B738/M-V/N

Departure

Time 2026-04-26 15:08
Airport Ålesund Airport (ENAL)

Arrival

Time 2026-04-26 15:35
Airport Ålesund Airport (ENAL)
Time Latitude Longitude Altitude Speed Heading
2026-04-26 14:50 62.55936 6.11549 71 ft 0 kts 153°
2026-04-26 14:56 62.55952 6.11532 73 ft 4 kts 158°
2026-04-26 14:56 62.55976 6.11525 68 ft 4 kts 204°
2026-04-26 14:57 62.55995 6.11557 76 ft 2 kts 232°
2026-04-26 14:57 62.55996 6.11560 77 ft 0 kts 232°
2026-04-26 15:02 62.55990 6.11542 78 ft 5 kts 234°
2026-04-26 15:02 62.55971 6.11461 70 ft 6 kts 244°
2026-04-26 15:02 62.55966 6.11438 74 ft 0 kts 245°
2026-04-26 15:03 62.55966 6.11437 74 ft 1 kts 245°
2026-04-26 15:03 62.55943 6.11337 77 ft 14 kts 243°
2026-04-26 15:03 62.55902 6.11126 75 ft 15 kts 262°
2026-04-26 15:03 62.55913 6.10970 74 ft 3 kts 286°
2026-04-26 15:04 62.55913 6.10966 74 ft 0 kts 286°
2026-04-26 15:05 62.55913 6.10964 73 ft 1 kts 286°
2026-04-26 15:06 62.55924 6.10879 78 ft 11 kts 285°
2026-04-26 15:06 62.55946 6.10617 71 ft 25 kts 259°
2026-04-26 15:06 62.55864 6.10220 54 ft 36 kts 245°
2026-04-26 15:06 62.55734 6.09622 46 ft 46 kts 245°
2026-04-26 15:07 62.55598 6.09029 38 ft 3 kts
2026-04-26 15:07 62.55616 6.09065 40 ft 6 kts 59°
2026-04-26 15:07 62.55619 6.09080 40 ft 6 kts 62°
2026-04-26 15:08 62.55783 6.09830 48 ft 104 kts 64°
2026-04-26 15:08 62.56186 6.11767 255 ft 170 kts 66°
2026-04-26 15:08 62.56572 6.14171 1046 ft 168 kts 72°
2026-04-26 15:08 62.56921 6.16672 1350 ft 177 kts 74°
2026-04-26 15:09 62.57371 6.19134 1630 ft 176 kts 49°
2026-04-26 15:09 62.58440 6.20305 1716 ft 174 kts 349°
2026-04-26 15:09 62.59297 6.18569 1574 ft 190 kts 287°
2026-04-26 15:09 62.59271 6.15654 1485 ft 199 kts 260°
2026-04-26 15:10 62.58830 6.12837 1457 ft 194 kts 249°
2026-04-26 15:10 62.58474 6.11078 1355 ft 186 kts 247°
2026-04-26 15:10 62.57735 6.07831 1176 ft 175 kts 244°
2026-04-26 15:10 62.57191 6.05495 927 ft 172 kts 246°
2026-04-26 15:11 62.56702 6.03238 903 ft 156 kts 246°
2026-04-26 15:11 62.56247 6.01260 785 ft 149 kts 242°
2026-04-26 15:11 62.55641 5.99607 656 ft 136 kts 227°
2026-04-26 15:11 62.54797 5.98967 465 ft 142 kts 163°
2026-04-26 15:12 62.54173 6.00449 407 ft 138 kts 98°
2026-04-26 15:12 62.54308 6.02470 426 ft 139 kts 73°
2026-04-26 15:12 62.54638 6.04524 467 ft 149 kts 64°
2026-04-26 15:12 62.55073 6.06584 376 ft 146 kts 65°
2026-04-26 15:13 62.55493 6.08482 166 ft 138 kts 63°
2026-04-26 15:13 62.55890 6.10341 67 ft 127 kts 60°
2026-04-26 15:13 62.56290 6.12172 234 ft 154 kts 68°
2026-04-26 15:13 62.56597 6.14303 843 ft 149 kts 77°
2026-04-26 15:14 62.56844 6.16573 1606 ft 154 kts 78°
2026-04-26 15:14 62.57043 6.18913 1972 ft 163 kts 78°
2026-04-26 15:14 62.57283 6.21374 2679 ft 170 kts 77°
2026-04-26 15:14 62.57509 6.23848 3688 ft 166 kts 78°
2026-04-26 15:15 62.57914 6.26252 3722 ft 173 kts 55°
2026-04-26 15:15 62.58858 6.27882 3731 ft 180 kts 20°
2026-04-26 15:15 62.60101 6.28377 3720 ft 182 kts 359°
2026-04-26 15:15 62.61180 6.27300 3735 ft 177 kts 301°
2026-04-26 15:16 62.61295 6.24813 3515 ft 173 kts 250°
2026-04-26 15:16 62.60757 6.22501 3270 ft 174 kts 244°
2026-04-26 15:16 62.60169 6.20131 2837 ft 183 kts 243°
2026-04-26 15:16 62.59525 6.17685 2466 ft 187 kts 240°
2026-04-26 15:17 62.58887 6.15236 2217 ft 185 kts 244°
2026-04-26 15:17 62.58568 6.13550 2051 ft 181 kts 259°
2026-04-26 15:17 62.58179 6.10027 1653 ft 179 kts 264°
2026-04-26 15:17 62.57971 6.07394 1494 ft 170 kts 260°
2026-04-26 15:18 62.57568 6.05011 1213 ft 170 kts 240°
2026-04-26 15:18 62.56956 6.02901 1062 ft 164 kts 239°
2026-04-26 15:18 62.56297 6.00845 822 ft 161 kts 238°
2026-04-26 15:18 62.55712 5.98949 717 ft 144 kts 241°
2026-04-26 15:19 62.55191 5.97090 655 ft 142 kts 231°
2026-04-26 15:19 62.54289 5.96552 604 ft 147 kts 165°
2026-04-26 15:19 62.53594 5.97974 661 ft 137 kts 103°
2026-04-26 15:19 62.53671 5.99969 726 ft 133 kts 69°
2026-04-26 15:20 62.54043 6.01873 718 ft 140 kts 65°
2026-04-26 15:20 62.54455 6.03794 618 ft 141 kts 64°
2026-04-26 15:20 62.54877 6.05731 471 ft 143 kts 63°
2026-04-26 15:20 62.55302 6.07651 253 ft 143 kts 63°
2026-04-26 15:21 62.55722 6.09559 61 ft 136 kts 64°
2026-04-26 15:21 62.56117 6.11353 113 ft 147 kts 64°
2026-04-26 15:21 62.56498 6.13494 635 ft 152 kts 72°
2026-04-26 15:21 62.56739 6.15780 1295 ft 162 kts 81°
2026-04-26 15:22 62.56896 6.18202 1905 ft 162 kts 79°
2026-04-26 15:22 62.57066 6.20648 2099 ft 175 kts 78°
2026-04-26 15:22 62.57330 6.23078 2663 ft 160 kts 67°
2026-04-26 15:22 62.57903 6.25045 3013 ft 154 kts 38°
2026-04-26 15:23 62.58861 6.26050 3227 ft 153 kts
2026-04-26 15:23 62.59973 6.25985 3187 ft 168 kts 348°
2026-04-26 15:23 62.61074 6.25089 3231 ft 173 kts 333°
2026-04-26 15:23 62.62134 6.23764 2999 ft 179 kts 330°
2026-04-26 15:24 62.63217 6.22340 2839 ft 184 kts 328°
2026-04-26 15:24 62.64281 6.20738 2692 ft 188 kts 317°
2026-04-26 15:24 62.65057 6.18501 2771 ft 181 kts 300°
2026-04-26 15:24 62.65518 6.15993 2802 ft 178 kts 287°
2026-04-26 15:25 62.65740 6.13384 2807 ft 175 kts 279°
2026-04-26 15:25 62.65845 6.11603 2768 ft 176 kts 278°
2026-04-26 15:25 62.65684 6.08198 2854 ft 169 kts 247°
2026-04-26 15:25 62.65027 6.06041 2708 ft 176 kts 226°
2026-04-26 15:26 62.64162 6.04277 2783 ft 171 kts 225°
2026-04-26 15:26 62.63562 6.03060 2644 ft 175 kts 222°
2026-04-26 15:26 62.62579 6.01584 2549 ft 174 kts 211°
2026-04-26 15:26 62.61464 6.00601 2345 ft 168 kts 193°
2026-04-26 15:27 62.60340 6.00232 2195 ft 158 kts 188°
2026-04-26 15:27 62.59283 5.99920 2064 ft 147 kts 191°
2026-04-26 15:27 62.58351 5.99457 1904 ft 132 kts 197°
2026-04-26 15:27 62.57401 5.98937 1722 ft 146 kts 196°
2026-04-26 15:28 62.56390 5.98578 1596 ft 149 kts 180°
2026-04-26 15:28 62.55406 5.99197 1412 ft 149 kts 148°
2026-04-26 15:28 62.54649 6.00698 1184 ft 145 kts 127°
2026-04-26 15:28 62.54338 6.02661 866 ft 141 kts 85°
2026-04-26 15:29 62.54668 6.04723 592 ft 149 kts 66°
2026-04-26 15:29 62.55094 6.06759 366 ft 146 kts 63°
2026-04-26 15:29 62.55969 6.10680 70 ft 132 kts 65°
2026-04-26 15:30 62.56682 6.14778 1848 ft 148 kts 75°
2026-04-26 15:30 62.56941 6.17099 2264 ft 170 kts 65°
2026-04-26 15:30 62.57447 6.19474 2268 ft 171 kts 60°
2026-04-26 15:31 62.58198 6.21310 2251 ft 162 kts 21°
2026-04-26 15:31 62.59771 6.18613 1963 ft 172 kts 285°
2026-04-26 15:31 62.59855 6.16049 2081 ft 165 kts 270°
2026-04-26 15:32 62.59637 6.12132 2137 ft 165 kts 263°
2026-04-26 15:32 62.59395 6.08421 2002 ft 189 kts 266°
2026-04-26 15:32 62.59202 6.05656 2168 ft 187 kts 262°
2026-04-26 15:33 62.58930 6.02871 2247 ft 186 kts 258°
2026-04-26 15:33 62.58438 6.00316 2293 ft 189 kts 240°
2026-04-26 15:33 62.57419 5.98682 1948 ft 185 kts 191°
2026-04-26 15:33 62.56096 5.98463 1414 ft 196 kts 183°
2026-04-26 15:34 62.54793 5.98587 1261 ft 175 kts 160°
2026-04-26 15:34 62.53933 6.00102 1155 ft 154 kts 108°
2026-04-26 15:34 62.54067 6.02187 942 ft 145 kts 60°
2026-04-26 15:34 62.54581 6.04184 722 ft 152 kts 64°
2026-04-26 15:35 62.55016 6.06232 433 ft 146 kts 65°
2026-04-26 15:35 62.55431 6.08204 205 ft 145 kts 63°
2026-04-26 15:35 62.55847 6.10118 60 ft 133 kts 62°
2026-04-26 15:35 62.56109 6.11337 83 ft 27 kts 64°
2026-04-26 15:36 62.56084 6.11531 72 ft 14 kts 154°
2026-04-26 15:36 62.56030 6.11573 72 ft 6 kts 166°
2026-04-26 15:36 62.55990 6.11536 74 ft 7 kts 215°
2026-04-26 15:36 62.55965 6.11441 73 ft 12 kts 247°
2026-04-26 15:37 62.55927 6.11252 78 ft 14 kts 242°
2026-04-26 15:37 62.55902 6.11068 70 ft 10 kts 280°
2026-04-26 15:37 62.55915 6.10954 69 ft 3 kts 284°
2026-04-26 15:37 62.55916 6.10949 70 ft 0 kts 283°
2026-04-26 15:45 62.55918 6.10927 78 ft 10 kts 284°
2026-04-26 15:46 62.56034 6.10957 84 ft 40 kts 65°
2026-04-26 15:46 62.56157 6.11545 71 ft 43 kts 65°
2026-04-26 15:46 62.56284 6.12114 72 ft 42 kts 63°
2026-04-26 15:46 62.56370 6.12508 55 ft 44 kts 65°
2026-04-26 15:47 62.56456 6.13024 45 ft 8 kts 25°
2026-04-26 15:47 62.56460 6.12937 44 ft 18 kts 242°
2026-04-26 15:47 62.56252 6.11978 70 ft 120 kts 244°
2026-04-26 15:48 62.55964 6.10667 70 ft 55 kts 245°
2026-04-26 15:48 62.55815 6.09976 54 ft 51 kts 245°
2026-04-26 15:48 62.55666 6.09304 39 ft 41 kts 245°
2026-04-26 15:48 62.55586 6.09032 40 ft 15 kts 296°
2026-04-26 15:49 62.55630 6.09098 40 ft 12 kts 67°
2026-04-26 15:49 62.55681 6.09352 42 ft 19 kts 65°
2026-04-26 15:49 62.55753 6.09698 47 ft 32 kts 64°
2026-04-26 15:49 62.55869 6.10220 54 ft 47 kts 64°
2026-04-26 15:50 62.56016 6.10897 82 ft 49 kts 65°
2026-04-26 15:50 62.56091 6.11247 84 ft 17 kts 63°
2026-04-26 15:50 62.56151 6.11477 69 ft 18 kts 58°
2026-04-26 15:50 62.56205 6.11722 73 ft 18 kts 66°
2026-04-26 15:51 62.56255 6.11975 66 ft 19 kts 67°
2026-04-26 15:51 62.56307 6.12233 64 ft 20 kts 66°
2026-04-26 15:51 62.56375 6.12549 55 ft 26 kts 64°
2026-04-26 15:51 62.56442 6.12854 46 ft 17 kts 70°
2026-04-26 15:52 62.56463 6.13017 46 ft 7 kts
2026-04-26 15:52 62.56472 6.12976 46 ft 2 kts 251°
2026-04-26 15:52 62.56471 6.12972 46 ft 0 kts 250°
2026-04-26 15:53 62.56426 6.12788 49 ft 46 kts 243°
2026-04-26 15:53 62.56179 6.11641 71 ft 119 kts 244°
2026-04-26 15:54 62.55746 6.09705 367 ft 156 kts 247°
2026-04-26 15:54 62.55300 6.07521 1252 ft 162 kts 250°
2026-04-26 15:54 62.54881 6.05174 2077 ft 182 kts 252°
2026-04-26 15:54 62.54389 6.02465 2719 ft 205 kts 250°
2026-04-26 15:55 62.53518 5.99707 2847 ft 245 kts 220°
2026-04-26 15:55 62.51925 5.98096 3078 ft 258 kts 187°
2026-04-26 15:55 62.50179 5.98511 4271 ft 248 kts 163°
2026-04-26 15:55 62.48643 6.00117 5102 ft 251 kts 141°
2026-04-26 15:56 62.47591 6.03068 5347 ft 253 kts 112°
2026-04-26 15:56 62.47312 6.06855 5357 ft 257 kts 83°
2026-04-26 15:56 62.47747 6.10575 5354 ft 256 kts 65°
2026-04-26 15:56 62.48704 6.13776 5365 ft 252 kts 51°
2026-04-26 15:57 62.49793 6.16742 5351 ft 252 kts 51°
2026-04-26 15:57 62.50921 6.19733 5357 ft 260 kts 47°
2026-04-26 15:57 62.52376 6.22061 5358 ft 262 kts 24°
2026-04-26 15:57 62.53493 6.23048 5356 ft 262 kts 20°
2026-04-26 15:58 62.55777 6.24876 5348 ft 261 kts 19°
2026-04-26 15:58 62.57464 6.26281 5340 ft 260 kts 27°
2026-04-26 15:58 62.58810 6.28854 5350 ft 260 kts 57°
2026-04-26 15:58 62.59584 6.32396 5354 ft 261 kts 68°
2026-04-26 15:59 62.60254 6.36082 5348 ft 262 kts 68°
2026-04-26 15:59 62.60899 6.39743 5341 ft 263 kts 70°
2026-04-26 15:59 62.61502 6.43540 5340 ft 263 kts 72°
2026-04-26 15:59 62.62026 6.47302 5350 ft 263 kts 74°
2026-04-26 16:00 62.62495 6.51136 5340 ft 263 kts 75°
2026-04-26 16:00 62.62963 6.54985 5346 ft 263 kts 74°
2026-04-26 16:00 62.63463 6.58822 5347 ft 263 kts 73°
2026-04-26 16:00 62.63968 6.62642 5349 ft 263 kts 73°
2026-04-26 16:01 62.64475 6.66478 5354 ft 264 kts 73°
2026-04-26 16:01 62.64982 6.70307 5352 ft 264 kts 73°
2026-04-26 16:01 62.65489 6.74129 5347 ft 263 kts 73°
2026-04-26 16:01 62.65997 6.77952 5238 ft 261 kts 73°
2026-04-26 16:02 62.66495 6.81730 4896 ft 256 kts 73°
2026-04-26 16:02 62.66972 6.85462 4338 ft 257 kts 73°
2026-04-26 16:02 62.67446 6.89209 3809 ft 256 kts 73°
2026-04-26 16:02 62.67757 6.91685 3462 ft 256 kts 73°
2026-04-26 16:03 62.68720 6.96305 2770 ft 251 kts 46°
2026-04-26 16:03 62.70062 6.98691 2284 ft 247 kts 40°
2026-04-26 16:03 62.71008 7.01475 1931 ft 242 kts 66°
2026-04-26 16:03 62.71457 7.04855 1785 ft 229 kts 76°
2026-04-26 16:04 62.71805 7.08200 1618 ft 224 kts 74°
2026-04-26 16:04 62.72271 7.11459 1387 ft 218 kts 70°
2026-04-26 16:04 62.72738 7.14650 1272 ft 221 kts 73°
2026-04-26 16:04 62.73151 7.17772 865 ft 209 kts 72°
2026-04-26 16:05 62.73627 7.20738 408 ft 198 kts 68°
2026-04-26 16:05 62.74056 7.23446 168 ft 181 kts 72°
2026-04-26 16:05 62.74428 7.25894 18 ft 161 kts 71°
2026-04-26 16:05 62.74651 7.27403 19 ft 62 kts 72°
2026-04-26 16:06 62.74723 7.27839 19 ft 32 kts 69°
2026-04-26 16:06 62.74760 7.28049 19 ft 1 kts 351°
2026-04-26 16:06 62.74757 7.28001 20 ft 8 kts 255°
2026-04-26 16:06 62.74717 7.27741 19 ft 28 kts 250°
2026-04-26 16:07 62.74624 7.27159 20 ft 55 kts 251°
2026-04-26 16:07 62.74509 7.26428 19 ft 35 kts 247°
2026-04-26 16:07 62.74553 7.26253 20 ft 11 kts 339°
2026-04-26 16:07 62.74567 7.26195 21 ft 4 kts 255°
2026-04-26 16:08 62.74558 7.26148 23 ft 3 kts 248°
2026-04-26 16:08 62.74552 7.26111 22 ft 2 kts 249°
2026-04-26 16:08 62.74534 7.26006 22 ft 12 kts 251°
2026-04-26 16:08 62.74508 7.25844 22 ft 0 kts 236°
2026-04-26 16:10 62.74507 7.25842 22 ft 0 kts 236°
2026-04-26 16:11 62.74504 7.25840 21 ft 1 kts 210°
2026-04-26 16:11 62.74445 7.25861 18 ft 15 kts 160°
2026-04-26 16:11 62.74435 7.25952 18 ft 0 kts 72°
2026-04-26 16:12 62.74541 7.26636 18 ft 100 kts 72°
2026-04-26 16:12 62.74999 7.31070 1470 ft 162 kts 92°
2026-04-26 16:13 62.74664 7.33253 2840 ft 152 kts 128°
2026-04-26 16:13 62.73644 7.34591 3058 ft 205 kts 170°
2026-04-26 16:13 62.72134 7.34152 3338 ft 230 kts 209°
2026-04-26 16:13 62.71044 7.31933 4424 ft 218 kts 240°
2026-04-26 16:14 62.70297 7.28826 4859 ft 248 kts 247°
2026-04-26 16:14 62.69655 7.25214 5656 ft 260 kts 251°
2026-04-26 16:14 62.68402 7.17710 7733 ft 268 kts 252°
2026-04-26 16:15 62.67731 7.13868 8639 ft 275 kts 252°
2026-04-26 16:15 62.67029 7.09972 9051 ft 278 kts 252°
2026-04-26 16:15 62.66372 7.06010 9131 ft 280 kts 256°
2026-04-26 16:16 62.65270 6.97911 9146 ft 277 kts 257°
2026-04-26 16:16 62.64816 6.93892 9147 ft 276 kts 265°
2026-04-26 16:16 62.64705 6.89745 9146 ft 273 kts 272°
2026-04-26 16:16 62.64648 6.85620 9032 ft 271 kts 271°
2026-04-26 16:17 62.64591 6.81550 8716 ft 269 kts 271°
2026-04-26 16:17 62.64542 6.77540 8335 ft 270 kts 271°
2026-04-26 16:17 62.64501 6.73462 8004 ft 270 kts 271°
2026-04-26 16:17 62.64469 6.69388 7704 ft 268 kts 271°
2026-04-26 16:18 62.64342 6.65404 7549 ft 257 kts 264°
2026-04-26 16:18 62.63823 6.58015 6628 ft 254 kts 263°
2026-04-26 16:19 62.63317 6.50095 5037 ft 270 kts 263°
2026-04-26 16:19 62.63070 6.46072 4239 ft 275 kts 263°
2026-04-26 16:19 62.62027 6.38051 2642 ft 273 kts 244°
2026-04-26 16:20 62.61196 6.34530 2235 ft 249 kts 245°
2026-04-26 16:20 62.59820 6.28275 1638 ft 210 kts 246°
2026-04-26 16:20 62.59217 6.25530 1356 ft 193 kts 246°
2026-04-26 16:21 62.58661 6.22983 1107 ft 180 kts 248°
2026-04-26 16:21 62.58139 6.20611 878 ft 166 kts 247°
2026-04-26 16:21 62.57657 6.18441 695 ft 155 kts 246°
2026-04-26 16:21 62.57207 6.16362 501 ft 148 kts 248°
2026-04-26 16:22 62.56772 6.14380 271 ft 141 kts 248°
2026-04-26 16:22 62.56375 6.12558 89 ft 131 kts 247°
2026-04-26 16:22 62.56032 6.10978 83 ft 94 kts 246°
2026-04-26 16:22 62.55819 6.09999 52 ft 52 kts 245°
2026-04-26 16:23 62.55693 6.09418 44 ft 35 kts 245°
2026-04-26 16:23 62.55601 6.09110 40 ft 17 kts 224°
2026-04-26 16:23 62.55615 6.09042 40 ft 7 kts 53°
2026-04-26 16:23 62.55637 6.09153 40 ft 12 kts 68°
2026-04-26 16:24 62.55688 6.09390 43 ft 21 kts 66°
2026-04-26 16:24 62.55761 6.09731 49 ft 28 kts 65°
2026-04-26 16:24 62.55855 6.10162 54 ft 34 kts 63°
2026-04-26 16:24 62.55948 6.10594 66 ft 21 kts 75°
2026-04-26 16:25 62.55928 6.10866 72 ft 18 kts 104°
2026-04-26 16:25 62.55901 6.11091 74 ft 10 kts 96°
2026-04-26 16:25 62.55917 6.11221 75 ft 9 kts 64°
2026-04-26 16:25 62.55944 6.11337 73 ft 9 kts 62°
2026-04-26 16:26 62.55972 6.11466 72 ft 7 kts 65°
2026-04-26 16:26 62.55968 6.11518 71 ft 5 kts 139°
2026-04-26 16:26 62.55938 6.11547 78 ft 2 kts 156°
2026-04-26 16:26 62.55935 6.11550 76 ft 0 kts 154°